Time;durP1;ratioP1;P1;durP2;ratioP2;P2;SDS_P1;SDS_P2;PMS_P1;PMS_P2;Temp;Humidity;BMP_temperature;BMP_pressure;BME280_temperature;BME280_humidity;BME280_pressure;Samples;Min_cycle;Max_cycle;Signal;HPM_P1;HPM_P2
2023/07/03 00:01:58;;;;;;;;;1.00;1.00;;;;;;;;5075593;28;45514;-78
2023/07/03 00:04:23;;;;;;;;;1.00;1.00;;;;;;;;5075705;28;45443;-78
2023/07/03 00:06:49;;;;;;;;;1.25;1.25;;;;;;;;5076559;28;45313;-78
2023/07/03 00:09:14;;;;;;;;;2.00;0.00;;;;;;;;5079017;27;46975;-79
2023/07/03 00:11:39;;;;;;;;;2.50;2.00;;;;;;;;5061911;28;45411;-79
2023/07/03 00:14:04;;;;;;;;;3.00;2.00;;;;;;;;5085948;27;45371;-79
2023/07/03 00:16:29;;;;;;;;;1.00;1.00;;;;;;;;5070163;27;45367;-78
2023/07/03 00:18:55;;;;;;;;;3.00;1.00;;;;;;;;5082246;27;46133;-78
2023/07/03 00:21:20;;;;;;;;;1.75;1.75;;;;;;;;5075720;28;45354;-79
2023/07/03 00:23:46;;;;;;;;;0.50;0.50;;;;;;;;5057755;28;45378;-79
2023/07/03 00:26:11;;;;;;;;;1.25;1.25;;;;;;;;5075687;27;45375;-78
2023/07/03 00:28:36;;;;;;;;;2.00;1.25;;;;;;;;5075933;28;45417;-80
2023/07/03 00:31:01;;;;;;;;;1.50;1.50;;;;;;;;5091572;27;45771;-78
2023/07/03 00:33:26;;;;;;;;;1.00;1.00;;;;;;;;5075677;28;45447;-78
2023/07/03 00:35:52;;;;;;;;;2.75;2.00;;;;;;;;5080973;27;45461;-79
2023/07/03 00:38:17;;;;;;;;;2.00;2.00;;;;;;;;5087845;27;46090;-78
2023/07/03 00:40:42;;;;;;;;;5.50;4.50;;;;;;;;5095720;27;45551;-79
2023/07/03 00:43:07;;;;;;;;;1.75;1.00;;;;;;;;5096545;27;45389;-78
2023/07/03 00:45:33;;;;;;;;;1.50;1.00;;;;;;;;5096300;27;45580;-78
2023/07/03 00:47:58;;;;;;;;;2.00;2.00;;;;;;;;5096002;27;45409;-79
2023/07/03 00:50:24;;;;;;;;;3.00;3.00;;;;;;;;5095184;27;45503;-78
2023/07/03 00:52:52;;;;;;;;;2.00;2.00;;;;;;;;5095976;27;45392;-78
2023/07/03 00:55:17;;;;;;;;;1.75;1.75;;;;;;;;5095143;27;45466;-78
2023/07/03 00:57:42;;;;;;;;;2.00;1.00;;;;;;;;5095320;27;46148;-78
2023/07/03 01:00:09;;;;;;;;;2.00;2.00;;;;;;;;5095783;27;45357;-78
2023/07/03 01:02:38;;;;;;;;;2.00;1.25;;;;;;;;5077521;27;45404;-79
2023/07/03 01:05:08;;;;;;;;;1.50;1.25;;;;;;;;5077785;27;45540;-78
2023/07/03 01:07:35;;;;;;;;;1.75;1.50;;;;;;;;5095655;27;45501;-80
2023/07/03 01:10:09;;;;;;;;;2.00;1.00;;;;;;;;5095345;27;45502;-79
2023/07/03 01:12:37;;;;;;;;;0.75;0.75;;;;;;;;5084260;27;45448;-80
2023/07/03 01:15:05;;;;;;;;;5.00;2.00;;;;;;;;5056837;28;45566;-81
2023/07/03 01:17:32;;;;;;;;;4.25;1.00;;;;;;;;5074451;28;45438;-80
2023/07/03 01:19:59;;;;;;;;;3.75;2.00;;;;;;;;5074676;28;45288;-79
2023/07/03 01:22:30;;;;;;;;;2.50;2.00;;;;;;;;5074941;28;45534;-80
2023/07/03 01:24:58;;;;;;;;;2.00;2.00;;;;;;;;5071932;28;45393;-78
2023/07/03 01:27:26;;;;;;;;;1.50;1.50;;;;;;;;5055648;28;45492;-78
2023/07/03 01:29:52;;;;;;;;;2.25;2.25;;;;;;;;5074365;27;45392;-81
2023/07/03 01:32:22;;;;;;;;;1.00;1.00;;;;;;;;5074764;28;45446;-78
2023/07/03 01:34:48;;;;;;;;;1.00;1.00;;;;;;;;5075269;28;45382;-80
2023/07/03 01:37:14;;;;;;;;;2.00;2.00;;;;;;;;5056444;28;47795;-79
2023/07/03 01:39:41;;;;;;;;;1.50;1.50;;;;;;;;5074496;28;45516;-79
2023/07/03 01:42:07;;;;;;;;;1.25;1.00;;;;;;;;5077794;27;45469;-78
2023/07/03 01:44:32;;;;;;;;;3.25;2.00;;;;;;;;5083087;27;45437;-78
2023/07/03 01:47:05;;;;;;;;;3.00;1.00;;;;;;;;5056463;28;48081;-78
2023/07/03 01:49:31;;;;;;;;;5.00;2.00;;;;;;;;5055318;28;45394;-78
2023/07/03 01:52:07;;;;;;;;;2.25;2.00;;;;;;;;5074414;27;45352;-78
2023/07/03 01:54:53;;;;;;;;;1.00;1.00;;;;;;;;5074469;28;45366;-78
2023/07/03 01:57:29;;;;;;;;;0.75;0.75;;;;;;;;5072259;27;46553;-78
2023/07/03 01:59:56;;;;;;;;;2.00;2.00;;;;;;;;5074820;27;45456;-78
2023/07/03 02:02:24;;;;;;;;;1.25;1.25;;;;;;;;5077985;27;45540;-77
2023/07/03 02:04:58;;;;;;;;;3.00;1.75;;;;;;;;5078044;28;45323;-78
2023/07/03 02:07:25;;;;;;;;;6.00;2.25;;;;;;;;5077755;28;45323;-78
2023/07/03 02:09:50;;;;;;;;;2.50;2.25;;;;;;;;5078036;28;45299;-78
2023/07/03 02:12:15;;;;;;;;;3.00;1.50;;;;;;;;5078008;28;45463;-78
2023/07/03 02:14:41;;;;;;;;;2.00;2.00;;;;;;;;5078087;28;45419;-78
2023/07/03 02:17:06;;;;;;;;;3.00;2.75;;;;;;;;5078478;28;45510;-79
2023/07/03 02:19:33;;;;;;;;;1.75;1.75;;;;;;;;5077699;28;45376;-79
2023/07/03 02:21:58;;;;;;;;;2.00;2.00;;;;;;;;5078264;28;45422;-78
2023/07/03 02:24:24;;;;;;;;;2.75;2.50;;;;;;;;5078062;28;45641;-78
2023/07/03 02:26:50;;;;;;;;;2.00;2.00;;;;;;;;5077413;27;45816;-79
2023/07/03 02:29:15;;;;;;;;;2.25;2.00;;;;;;;;5077540;28;45713;-78
2023/07/03 02:31:41;;;;;;;;;4.25;3.00;;;;;;;;5077806;27;45460;-79
2023/07/03 02:34:06;;;;;;;;;3.75;2.75;;;;;;;;5077278;28;45549;-78
2023/07/03 02:36:35;;;;;;;;;3.00;1.00;;;;;;;;5077556;28;45461;-78
2023/07/03 02:39:01;;;;;;;;;2.75;2.00;;;;;;;;5059352;28;45338;-79
2023/07/03 02:41:27;;;;;;;;;3.00;2.00;;;;;;;;5077438;28;45399;-79
2023/07/03 02:43:52;;;;;;;;;2.25;2.00;;;;;;;;5059479;28;45651;-79
2023/07/03 02:46:17;;;;;;;;;2.25;2.25;;;;;;;;5077837;28;45463;-79
2023/07/03 02:48:43;;;;;;;;;1.25;1.00;;;;;;;;5077336;28;45446;-78
2023/07/03 02:51:08;;;;;;;;;2.00;1.00;;;;;;;;5078208;28;45454;-79
2023/07/03 02:53:33;;;;;;;;;3.25;3.00;;;;;;;;5077662;27;45344;-79
2023/07/03 02:55:58;;;;;;;;;1.00;1.00;;;;;;;;5077560;27;46232;-79
2023/07/03 02:58:24;;;;;;;;;5.00;2.75;;;;;;;;5059162;28;45399;-79
2023/07/03 03:00:50;;;;;;;;;4.00;3.25;;;;;;;;5077360;28;45651;-78
2023/07/03 03:03:15;;;;;;;;;2.00;2.00;;;;;;;;5077175;27;45384;-79
2023/07/03 03:05:40;;;;;;;;;3.25;1.75;;;;;;;;5058456;28;47238;-78
2023/07/03 03:08:07;;;;;;;;;4.00;3.75;;;;;;;;5077028;28;45512;-79
2023/07/03 03:10:32;;;;;;;;;3.25;3.25;;;;;;;;5076891;28;45367;-78
2023/07/03 03:12:58;;;;;;;;;2.50;2.50;;;;;;;;5075884;27;45348;-79
2023/07/03 03:15:25;;;;;;;;;2.75;2.75;;;;;;;;5076644;28;46297;-78
2023/07/03 03:17:51;;;;;;;;;4.75;3.00;;;;;;;;5076457;27;45288;-77
2023/07/03 03:20:16;;;;;;;;;3.75;2.75;;;;;;;;5058389;27;45516;-77
2023/07/03 03:22:41;;;;;;;;;3.00;3.00;;;;;;;;5058388;27;45343;-78
2023/07/03 03:25:06;;;;;;;;;2.50;2.25;;;;;;;;5076748;28;45391;-78
2023/07/03 03:27:32;;;;;;;;;3.00;2.75;;;;;;;;5076595;28;45335;-78
2023/07/03 03:29:57;;;;;;;;;2.00;2.00;;;;;;;;5076754;28;45417;-77
2023/07/03 03:32:22;;;;;;;;;4.25;4.00;;;;;;;;5076650;28;45374;-78
2023/07/03 03:34:47;;;;;;;;;3.00;3.00;;;;;;;;5076544;28;46690;-78
2023/07/03 03:37:13;;;;;;;;;6.00;4.50;;;;;;;;5076813;28;45328;-78
2023/07/03 03:39:38;;;;;;;;;2.00;2.00;;;;;;;;5076926;28;45423;-78
2023/07/03 03:42:03;;;;;;;;;4.75;3.25;;;;;;;;5076554;28;45365;-78
2023/07/03 03:44:28;;;;;;;;;5.00;4.00;;;;;;;;5076471;28;46064;-79
2023/07/03 03:46:54;;;;;;;;;7.50;3.75;;;;;;;;5076260;27;45409;-78
2023/07/03 03:49:19;;;;;;;;;3.00;2.75;;;;;;;;5076777;28;45465;-78
2023/07/03 03:51:44;;;;;;;;;5.00;3.25;;;;;;;;5076597;28;45515;-78
2023/07/03 03:54:10;;;;;;;;;5.25;4.50;;;;;;;;5076149;28;45957;-78
2023/07/03 03:56:35;;;;;;;;;4.75;4.50;;;;;;;;5076280;28;45435;-79
2023/07/03 03:59:01;;;;;;;;;3.75;3.75;;;;;;;;5076686;28;45387;-78
2023/07/03 04:01:26;;;;;;;;;6.00;6.00;;;;;;;;5076196;28;45391;-79
2023/07/03 04:03:51;;;;;;;;;3.75;3.75;;;;;;;;5076194;28;46208;-78
2023/07/03 04:06:16;;;;;;;;;6.00;6.00;;;;;;;;5076628;28;45290;-78
2023/07/03 04:08:42;;;;;;;;;3.50;3.50;;;;;;;;5058946;27;45304;-79
2023/07/03 04:11:07;;;;;;;;;4.50;3.00;;;;;;;;5076301;28;45419;-78
2023/07/03 04:13:32;;;;;;;;;6.00;4.25;;;;;;;;5075798;27;45666;-78
2023/07/03 04:16:00;;;;;;;;;4.00;4.00;;;;;;;;5056803;27;45411;-78
2023/07/03 04:18:25;;;;;;;;;7.00;4.75;;;;;;;;5075892;28;45466;-78
2023/07/03 04:20:51;;;;;;;;;5.25;5.25;;;;;;;;5055948;28;45550;-78
2023/07/03 04:23:17;;;;;;;;;0.00;0.00;;;;;;;;5074667;28;45952;-78
2023/07/03 04:25:42;;;;;;;;;4.00;4.00;;;;;;;;5074656;28;45736;-78
2023/07/03 04:28:08;;;;;;;;;5.25;3.50;;;;;;;;5090849;27;45345;-77
2023/07/03 04:30:33;;;;;;;;;3.50;3.50;;;;;;;;5075447;27;45430;-78
2023/07/03 04:32:58;;;;;;;;;7.75;5.50;;;;;;;;5075452;28;45507;-77
2023/07/03 04:35:23;;;;;;;;;3.25;2.25;;;;;;;;5075998;27;45431;-79
2023/07/03 04:37:51;;;;;;;;;2.50;2.50;;;;;;;;5076038;28;45426;-78
2023/07/03 04:40:17;;;;;;;;;2.25;2.00;;;;;;;;5075586;28;45515;-78
2023/07/03 04:42:43;;;;;;;;;2.75;2.75;;;;;;;;5075504;27;46039;-78
2023/07/03 04:45:09;;;;;;;;;7.50;3.25;;;;;;;;5075217;28;45328;-78
2023/07/03 04:47:37;;;;;;;;;4.25;3.50;;;;;;;;5075641;28;45331;-78
2023/07/03 04:50:03;;;;;;;;;3.75;2.75;;;;;;;;5075002;28;45516;-77
2023/07/03 04:52:29;;;;;;;;;6.75;4.75;;;;;;;;5074382;27;45417;-78
2023/07/03 04:54:54;;;;;;;;;4.25;3.25;;;;;;;;5074525;28;45385;-78
2023/07/03 04:57:19;;;;;;;;;3.00;3.00;;;;;;;;5075449;28;45334;-78
2023/07/03 04:59:44;;;;;;;;;4.75;3.00;;;;;;;;5075187;27;45500;-78
2023/07/03 05:02:12;;;;;;;;;0.00;0.00;;;;;;;;5075621;28;46152;-75
2023/07/03 05:04:37;;;;;;;;;2.50;2.50;;;;;;;;5074969;28;45414;-76
2023/07/03 05:07:02;;;;;;;;;2.75;2.50;;;;;;;;5074425;28;45574;-75
2023/07/03 05:09:27;;;;;;;;;3.50;3.00;;;;;;;;5056845;28;45690;-75
2023/07/03 05:11:53;;;;;;;;;7.25;4.00;;;;;;;;5074743;28;45316;-76
2023/07/03 05:14:18;;;;;;;;;3.50;3.00;;;;;;;;5074744;28;45371;-75
2023/07/03 05:16:43;;;;;;;;;1.00;1.00;;;;;;;;5074791;28;45385;-75
2023/07/03 05:19:09;;;;;;;;;3.00;3.00;;;;;;;;5075128;28;45397;-76
2023/07/03 05:21:34;;;;;;;;;4.50;4.00;;;;;;;;5054388;28;46187;-76
2023/07/03 05:23:59;;;;;;;;;3.00;3.00;;;;;;;;5054654;28;45384;-75
2023/07/03 05:26:24;;;;;;;;;4.00;3.00;;;;;;;;5054558;28;45355;-75
2023/07/03 05:28:49;;;;;;;;;2.25;1.75;;;;;;;;5053986;28;45372;-75
2023/07/03 05:31:15;;;;;;;;;2.25;2.25;;;;;;;;5054150;28;45409;-75
2023/07/03 05:33:40;;;;;;;;;5.00;3.00;;;;;;;;5036386;28;45508;-76
2023/07/03 05:36:05;;;;;;;;;3.00;3.00;;;;;;;;5055808;28;45355;-75
2023/07/03 05:38:31;;;;;;;;;3.00;3.00;;;;;;;;5057896;28;45327;-75
2023/07/03 05:40:56;;;;;;;;;3.75;3.75;;;;;;;;5058227;28;46191;-75
2023/07/03 05:43:22;;;;;;;;;4.75;3.00;;;;;;;;5057543;28;45468;-75
2023/07/03 05:45:48;;;;;;;;;2.75;2.75;;;;;;;;5057990;28;45370;-76
2023/07/03 05:48:13;;;;;;;;;2.75;1.75;;;;;;;;5058353;28;45410;-75
2023/07/03 05:50:38;;;;;;;;;4.25;3.00;;;;;;;;5039823;28;46901;-75
2023/07/03 05:53:04;;;;;;;;;3.25;2.25;;;;;;;;5040052;28;45500;-75
2023/07/03 05:55:29;;;;;;;;;3.00;2.75;;;;;;;;5057709;28;45626;-75
2023/07/03 05:57:54;;;;;;;;;5.25;3.75;;;;;;;;5057229;28;45471;-77
2023/07/03 06:00:21;;;;;;;;;5.75;3.50;;;;;;;;5041530;28;48376;-76
2023/07/03 06:02:47;;;;;;;;;5.00;3.00;;;;;;;;5077614;28;45337;-76
2023/07/03 06:05:12;;;;;;;;;2.00;2.00;;;;;;;;5041124;28;45362;-76
2023/07/03 06:07:38;;;;;;;;;3.50;2.00;;;;;;;;5077562;28;45572;-76
2023/07/03 06:10:03;;;;;;;;;3.00;3.00;;;;;;;;5077900;28;45835;-77
2023/07/03 06:12:29;;;;;;;;;4.00;3.00;;;;;;;;5078237;28;45384;-76
2023/07/03 06:14:56;;;;;;;;;2.00;2.00;;;;;;;;5078821;28;45347;-76
2023/07/03 06:17:22;;;;;;;;;2.25;2.25;;;;;;;;5078699;28;45498;-76
2023/07/03 06:19:47;;;;;;;;;2.50;1.50;;;;;;;;5079197;28;45355;-76
2023/07/03 06:22:12;;;;;;;;;2.25;1.50;;;;;;;;5060210;28;45356;-76
2023/07/03 06:24:37;;;;;;;;;5.25;3.00;;;;;;;;5077938;28;45473;-76
2023/07/03 06:27:03;;;;;;;;;2.00;2.00;;;;;;;;5042860;28;45391;-76
2023/07/03 06:29:28;;;;;;;;;2.25;1.50;;;;;;;;5076594;28;45590;-76
2023/07/03 06:31:54;;;;;;;;;2.75;2.75;;;;;;;;5077224;27;45563;-76
2023/07/03 06:34:19;;;;;;;;;2.25;1.25;;;;;;;;5077844;27;45472;-76
2023/07/03 06:36:44;;;;;;;;;3.00;2.00;;;;;;;;5059558;28;45493;-76
2023/07/03 06:39:10;;;;;;;;;1.00;1.00;;;;;;;;5077296;28;46124;-76
2023/07/03 06:41:35;;;;;;;;;2.75;2.00;;;;;;;;5077144;28;45443;-76
2023/07/03 06:44:01;;;;;;;;;3.75;2.25;;;;;;;;5076999;28;45434;-76
2023/07/03 06:46:26;;;;;;;;;2.00;2.00;;;;;;;;5077178;27;45433;-77
2023/07/03 06:48:53;;;;;;;;;4.00;3.00;;;;;;;;5075871;28;46443;-76
2023/07/03 06:51:18;;;;;;;;;2.00;2.00;;;;;;;;5058811;28;45603;-77
2023/07/03 06:53:43;;;;;;;;;2.00;2.00;;;;;;;;5077372;28;45327;-77
2023/07/03 06:56:08;;;;;;;;;3.75;2.00;;;;;;;;5058780;28;45538;-76
2023/07/03 06:58:34;;;;;;;;;3.00;1.75;;;;;;;;5076623;28;45934;-77
2023/07/03 07:01:10;;;;;;;;;3.75;2.00;;;;;;;;5077078;27;45426;-76
2023/07/03 07:03:35;;;;;;;;;3.00;2.25;;;;;;;;5077342;28;45362;-77
2023/07/03 07:06:07;;;;;;;;;1.75;1.75;;;;;;;;5076857;28;45578;-76
2023/07/03 07:08:32;;;;;;;;;2.00;2.00;;;;;;;;5058649;28;48398;-77
2023/07/03 07:10:57;;;;;;;;;2.25;2.25;;;;;;;;5077027;28;45367;-76
2023/07/03 07:13:22;;;;;;;;;2.00;2.00;;;;;;;;5058823;28;45290;-76
2023/07/03 07:15:48;;;;;;;;;1.25;1.00;;;;;;;;5076784;28;45685;-76
2023/07/03 07:18:13;;;;;;;;;2.00;2.00;;;;;;;;5076544;28;46817;-76
2023/07/03 07:20:39;;;;;;;;;2.00;2.00;;;;;;;;5076311;28;45609;-76
2023/07/03 07:23:06;;;;;;;;;2.50;1.00;;;;;;;;5055878;27;45537;-77
2023/07/03 07:25:31;;;;;;;;;3.00;2.00;;;;;;;;5073296;27;45681;-76
2023/07/03 07:27:57;;;;;;;;;2.00;2.00;;;;;;;;5069145;27;45509;-76
2023/07/03 07:30:22;;;;;;;;;2.33;2.33;;;;;;;;5081499;27;46096;-75
2023/07/03 07:32:49;;;;;;;;;3.00;2.75;;;;;;;;5096553;27;45636;-77
2023/07/03 07:35:14;;;;;;;;;2.25;2.00;;;;;;;;5096557;27;45417;-76
2023/07/03 07:37:39;;;;;;;;;1.25;1.25;;;;;;;;5096515;27;46247;-76
2023/07/03 07:40:05;;;;;;;;;2.50;2.50;;;;;;;;5096797;27;45411;-77
2023/07/03 07:42:31;;;;;;;;;3.00;1.50;;;;;;;;5097010;27;45411;-76
2023/07/03 07:44:56;;;;;;;;;2.00;1.75;;;;;;;;5096976;27;45516;-75
2023/07/03 07:47:22;;;;;;;;;3.00;3.00;;;;;;;;5096678;27;45488;-74
2023/07/03 07:49:47;;;;;;;;;5.00;4.00;;;;;;;;5078388;27;45524;-76
2023/07/03 07:52:12;;;;;;;;;6.25;4.00;;;;;;;;5096827;27;45467;-76
2023/07/03 07:54:37;;;;;;;;;3.25;2.00;;;;;;;;5096340;27;45392;-76
2023/07/03 07:57:03;;;;;;;;;5.00;3.00;;;;;;;;5096529;27;46435;-74
2023/07/03 07:59:28;;;;;;;;;2.00;2.00;;;;;;;;5095243;27;45417;-76
2023/07/03 08:01:53;;;;;;;;;3.00;1.75;;;;;;;;5096829;27;45339;-76
2023/07/03 08:04:18;;;;;;;;;3.00;2.00;;;;;;;;5097002;27;45386;-77
2023/07/03 08:06:43;;;;;;;;;2.75;2.75;;;;;;;;5096559;27;46061;-77
2023/07/03 08:09:09;;;;;;;;;2.00;2.00;;;;;;;;5079206;27;45446;-76
2023/07/03 08:11:34;;;;;;;;;2.50;2.50;;;;;;;;5075577;28;45442;-76
2023/07/03 08:13:59;;;;;;;;;3.75;3.75;;;;;;;;5075825;28;45351;-76
2023/07/03 08:16:24;;;;;;;;;2.50;2.50;;;;;;;;5075704;28;45479;-77
2023/07/03 08:18:50;;;;;;;;;1.25;1.25;;;;;;;;5075427;28;45379;-76
2023/07/03 08:21:15;;;;;;;;;3.25;2.75;;;;;;;;5075190;28;45331;-75
2023/07/03 08:23:40;;;;;;;;;3.25;3.25;;;;;;;;5075509;28;45316;-75
2023/07/03 08:26:05;;;;;;;;;1.50;1.50;;;;;;;;5075113;28;45388;-75
2023/07/03 08:28:30;;;;;;;;;3.00;3.00;;;;;;;;5075630;28;45363;-76
2023/07/03 08:30:57;;;;;;;;;3.25;3.25;;;;;;;;5075993;28;45368;-76
2023/07/03 08:33:23;;;;;;;;;3.75;3.75;;;;;;;;5075764;28;45415;-75
2023/07/03 08:35:48;;;;;;;;;3.00;3.00;;;;;;;;5075439;27;46143;-75
2023/07/03 08:38:13;;;;;;;;;4.00;2.00;;;;;;;;5075410;28;45413;-76
2023/07/03 08:40:39;;;;;;;;;4.00;3.00;;;;;;;;5075875;28;45379;-77
2023/07/03 08:43:05;;;;;;;;;3.50;2.25;;;;;;;;5075601;28;45344;-76
2023/07/03 08:45:33;;;;;;;;;3.00;3.00;;;;;;;;5075161;28;46116;-76
2023/07/03 08:47:59;;;;;;;;;2.00;2.00;;;;;;;;5075411;28;45488;-76
2023/07/03 08:50:25;;;;;;;;;2.00;2.00;;;;;;;;5075308;28;45356;-75
2023/07/03 08:52:53;;;;;;;;;3.50;3.50;;;;;;;;5075000;27;45385;-76
2023/07/03 08:55:21;;;;;;;;;0.00;0.00;;;;;;;;5056797;28;45976;-76
2023/07/03 08:57:47;;;;;;;;;3.25;3.25;;;;;;;;5075287;28;45328;-76
2023/07/03 09:00:12;;;;;;;;;4.25;2.25;;;;;;;;5074983;28;45394;-76
2023/07/03 09:02:53;;;;;;;;;5.00;3.50;;;;;;;;5075432;27;45553;-77
2023/07/03 09:05:29;;;;;;;;;4.00;3.00;;;;;;;;5056944;27;47454;-77
2023/07/03 09:07:56;;;;;;;;;3.50;3.50;;;;;;;;5075109;28;45386;-76
2023/07/03 09:10:25;;;;;;;;;5.00;3.25;;;;;;;;5075497;27;45422;-77
2023/07/03 09:12:56;;;;;;;;;3.50;3.00;;;;;;;;5078744;28;45598;-78
2023/07/03 09:15:24;;;;;;;;;2.00;2.00;;;;;;;;5078327;28;46351;-77
2023/07/03 09:17:52;;;;;;;;;3.50;2.75;;;;;;;;5078694;28;45263;-76
2023/07/03 09:20:17;;;;;;;;;3.50;3.50;;;;;;;;5056658;28;45359;-77
2023/07/03 09:22:43;;;;;;;;;2.00;2.00;;;;;;;;5058367;28;45372;-76
2023/07/03 09:25:11;;;;;;;;;3.00;3.00;;;;;;;;5058773;28;46194;-76
2023/07/03 09:27:36;;;;;;;;;2.50;2.25;;;;;;;;5057036;28;45406;-75
2023/07/03 09:30:06;;;;;;;;;3.50;3.00;;;;;;;;5058181;28;45328;-76
2023/07/03 09:32:32;;;;;;;;;4.00;3.00;;;;;;;;5058450;28;45403;-77
2023/07/03 09:34:57;;;;;;;;;3.75;2.50;;;;;;;;5057545;28;46196;-76
2023/07/03 09:37:22;;;;;;;;;1.00;1.00;;;;;;;;5057970;28;45668;-77
2023/07/03 09:39:47;;;;;;;;;2.25;2.25;;;;;;;;5058344;28;45374;-76
2023/07/03 09:42:14;;;;;;;;;0.00;0.00;;;;;;;;5056880;28;45532;-77
2023/07/03 09:44:42;;;;;;;;;2.25;2.25;;;;;;;;5057706;28;45461;-77
2023/07/03 09:47:19;;;;;;;;;2.75;2.00;;;;;;;;5058218;28;45442;-76
2023/07/03 09:49:45;;;;;;;;;3.50;2.75;;;;;;;;5056827;28;45953;-76
2023/07/03 09:52:10;;;;;;;;;4.50;2.25;;;;;;;;5056616;28;45529;-77
2023/07/03 09:54:41;;;;;;;;;3.00;1.00;;;;;;;;5057680;28;45501;-78
2023/07/03 09:57:17;;;;;;;;;3.25;2.00;;;;;;;;5056723;28;45468;-76
2023/07/03 09:59:42;;;;;;;;;2.25;1.75;;;;;;;;5056927;28;45408;-77
2023/07/03 10:02:07;;;;;;;;;2.25;2.25;;;;;;;;5058243;28;45392;-77
2023/07/03 10:04:42;;;;;;;;;3.75;2.25;;;;;;;;5058150;28;46072;-77
2023/07/03 10:07:07;;;;;;;;;1.25;1.25;;;;;;;;5046151;28;45395;-78
2023/07/03 10:09:34;;;;;;;;;2.25;2.25;;;;;;;;5037757;28;45358;-78
2023/07/03 10:12:11;;;;;;;;;3.00;1.50;;;;;;;;5037900;28;45359;-77
2023/07/03 10:14:40;;;;;;;;;4.00;1.25;;;;;;;;5037420;28;45708;-78
2023/07/03 10:17:12;;;;;;;;;1.00;1.00;;;;;;;;5038702;28;45450;-77
2023/07/03 10:19:38;;;;;;;;;2.00;2.00;;;;;;;;5042424;28;45378;-77
2023/07/03 10:22:04;;;;;;;;;2.00;2.00;;;;;;;;5056644;28;45499;-77
2023/07/03 10:24:32;;;;;;;;;1.25;1.25;;;;;;;;5057725;28;46075;-79
2023/07/03 10:26:58;;;;;;;;;1.00;1.00;;;;;;;;5057433;28;45391;-78
2023/07/03 10:29:29;;;;;;;;;1.50;1.00;;;;;;;;5057251;28;45400;-78
2023/07/03 10:31:58;;;;;;;;;1.00;1.00;;;;;;;;5057454;28;45426;-78
2023/07/03 10:34:27;;;;;;;;;2.00;2.00;;;;;;;;5057092;28;45435;-77
2023/07/03 10:36:55;;;;;;;;;2.75;2.75;;;;;;;;5057175;28;45329;-78
2023/07/03 10:39:27;;;;;;;;;3.25;2.00;;;;;;;;5057036;28;45332;-78
2023/07/03 10:41:56;;;;;;;;;1.00;1.00;;;;;;;;5057362;28;45404;-77
2023/07/03 10:44:32;;;;;;;;;2.00;2.00;;;;;;;;5057179;28;47319;-77
2023/07/03 10:47:09;;;;;;;;;0.00;0.00;;;;;;;;5056915;28;45442;-77
2023/07/03 10:49:36;;;;;;;;;1.00;1.00;;;;;;;;5055729;28;45319;-78
2023/07/03 10:52:01;;;;;;;;;2.00;1.00;;;;;;;;5057086;28;45552;-77
2023/07/03 10:54:30;;;;;;;;;1.00;1.00;;;;;;;;5055177;28;47762;-77
2023/07/03 10:56:57;;;;;;;;;0.00;0.00;;;;;;;;5056909;28;45374;-78
2023/07/03 10:59:22;;;;;;;;;1.75;1.00;;;;;;;;5056931;28;45414;-76
2023/07/03 11:01:48;;;;;;;;;2.00;1.50;;;;;;;;5056801;28;45377;-76
2023/07/03 11:04:21;;;;;;;;;1.50;1.00;;;;;;;;5056714;28;45466;-77
2023/07/03 11:06:49;;;;;;;;;1.00;1.00;;;;;;;;5056675;28;45497;-78
2023/07/03 11:09:21;;;;;;;;;0.00;0.00;;;;;;;;5056759;28;45366;-75
2023/07/03 11:11:56;;;;;;;;;1.50;0.00;;;;;;;;5053070;28;45401;-77
2023/07/03 11:14:27;;;;;;;;;1.00;1.00;;;;;;;;5036439;28;46223;-76
2023/07/03 11:16:52;;;;;;;;;2.00;0.50;;;;;;;;5028842;28;45542;-78
2023/07/03 11:19:25;;;;;;;;;1.00;1.00;;;;;;;;5042415;28;45466;-78
2023/07/03 11:22:01;;;;;;;;;1.00;0.25;;;;;;;;5088617;27;45483;-78
2023/07/03 11:24:50;;;;;;;;;2.00;1.00;;;;;;;;5082353;27;45589;-78
2023/07/03 11:27:21;;;;;;;;;3.25;0.50;;;;;;;;5081610;27;45509;-77
2023/07/03 11:29:47;;;;;;;;;0.75;0.00;;;;;;;;5092867;27;45533;-77
2023/07/03 11:32:13;;;;;;;;;0.75;0.00;;;;;;;;5080398;27;45527;-77
2023/07/03 11:34:39;;;;;;;;;1.00;1.00;;;;;;;;5087458;27;46030;-77
2023/07/03 11:37:25;;;;;;;;;1.00;1.00;;;;;;;;5086940;27;45449;-76
2023/07/03 11:39:50;;;;;;;;;1.00;1.00;;;;;;;;5079592;27;45407;-77
2023/07/03 11:42:21;;;;;;;;;0.25;0.00;;;;;;;;5107957;27;45344;-77
2023/07/03 11:44:48;;;;;;;;;0.00;0.00;;;;;;;;5085155;27;45314;-78
2023/07/03 11:47:27;;;;;;;;;1.00;1.00;;;;;;;;5083047;27;45390;-76
2023/07/03 11:49:57;;;;;;;;;1.00;1.00;;;;;;;;5091155;27;45463;-77
2023/07/03 11:52:25;;;;;;;;;1.75;0.75;;;;;;;;5081799;27;45423;-77
2023/07/03 11:55:05;;;;;;;;;1.00;1.00;;;;;;;;5086520;27;47449;-77
2023/07/03 11:57:36;;;;;;;;;1.00;1.00;;;;;;;;5090457;27;45441;-77
2023/07/03 12:00:25;;;;;;;;;0.00;0.00;;;;;;;;5078994;27;45492;-77
2023/07/03 12:02:55;;;;;;;;;2.25;0.75;;;;;;;;5086340;27;45445;-77
2023/07/03 12:05:39;;;;;;;;;0.75;0.00;;;;;;;;5089279;27;46221;-77
2023/07/03 12:08:09;;;;;;;;;0.00;0.00;;;;;;;;5078777;27;45530;-76
2023/07/03 12:10:35;;;;;;;;;2.00;2.00;;;;;;;;5088379;27;45550;-78
2023/07/03 12:13:19;;;;;;;;;0.00;0.00;;;;;;;;5086836;27;45508;-78
2023/07/03 12:15:44;;;;;;;;;1.25;1.25;;;;;;;;5078332;27;46353;-77
2023/07/03 12:18:10;;;;;;;;;2.00;2.00;;;;;;;;5107809;27;45358;-79
2023/07/03 12:20:35;;;;;;;;;1.00;1.00;;;;;;;;5082659;27;45572;-77
2023/07/03 12:23:01;;;;;;;;;0.75;0.75;;;;;;;;5084748;27;45466;-78
2023/07/03 12:25:27;;;;;;;;;3.00;1.25;;;;;;;;5089858;27;45434;-78
2023/07/03 12:27:54;;;;;;;;;1.00;0.00;;;;;;;;5078597;27;45486;-79
2023/07/03 12:30:23;;;;;;;;;1.00;1.00;;;;;;;;5090445;27;45526;-78
2023/07/03 12:32:49;;;;;;;;;0.00;0.00;;;;;;;;5084421;27;45425;-77
2023/07/03 12:35:16;;;;;;;;;0.00;0.00;;;;;;;;5063856;28;47196;-77
2023/07/03 12:37:45;;;;;;;;;1.00;1.00;;;;;;;;5091888;27;45412;-77
2023/07/03 12:40:12;;;;;;;;;1.00;1.00;;;;;;;;5062753;27;45380;-77
2023/07/03 12:42:37;;;;;;;;;2.50;1.75;;;;;;;;5087520;27;45539;-78
2023/07/03 12:45:09;;;;;;;;;2.50;2.50;;;;;;;;5085949;27;45440;-77
2023/07/03 12:47:35;;;;;;;;;2.75;1.00;;;;;;;;5079215;27;45535;-78
2023/07/03 12:50:00;;;;;;;;;2.00;2.00;;;;;;;;5091845;27;45413;-77
2023/07/03 12:52:27;;;;;;;;;1.00;1.00;;;;;;;;5081073;27;45477;-76
2023/07/03 12:54:52;;;;;;;;;2.00;2.00;;;;;;;;5085219;27;47396;-77
2023/07/03 12:57:20;;;;;;;;;1.00;1.00;;;;;;;;5056154;28;45606;-77
2023/07/03 12:59:46;;;;;;;;;3.50;1.50;;;;;;;;5091518;27;45417;-75
2023/07/03 13:02:12;;;;;;;;;2.00;1.75;;;;;;;;5079082;27;45479;-77
2023/07/03 13:04:37;;;;;;;;;4.75;4.75;;;;;;;;5086868;27;45538;-77
2023/07/03 13:07:03;;;;;;;;;9.50;7.25;;;;;;;;5074523;28;45435;-78
2023/07/03 13:09:29;;;;;;;;;7.50;6.50;;;;;;;;5089155;27;45328;-78
2023/07/03 13:11:55;;;;;;;;;3.25;3.25;;;;;;;;5077739;27;45446;-76
2023/07/03 13:14:22;;;;;;;;;4.00;1.25;;;;;;;;5089459;27;45414;-76
2023/07/03 13:16:50;;;;;;;;;2.00;2.00;;;;;;;;5083044;27;45526;-77
2023/07/03 13:19:25;;;;;;;;;2.25;1.75;;;;;;;;5081498;27;45288;-77
2023/07/03 13:21:50;;;;;;;;;1.50;1.25;;;;;;;;5091202;27;45333;-79
2023/07/03 13:24:16;;;;;;;;;3.75;2.00;;;;;;;;5078848;27;45447;-78
2023/07/03 13:26:45;;;;;;;;;1.00;1.00;;;;;;;;5085981;27;45513;-78
2023/07/03 13:29:10;;;;;;;;;2.00;1.00;;;;;;;;5087036;27;45345;-77
2023/07/03 13:31:36;;;;;;;;;0.00;0.00;;;;;;;;5078908;27;45456;-78
2023/07/03 13:34:12;;;;;;;;;2.75;1.00;;;;;;;;5090991;27;46099;-77
2023/07/03 13:36:37;;;;;;;;;3.25;3.25;;;;;;;;5081766;27;45413;-77
2023/07/03 13:39:03;;;;;;;;;17.00;14.75;;;;;;;;5083450;27;45313;-76
2023/07/03 13:41:29;;;;;;;;;22.75;18.50;;;;;;;;5088706;27;45412;-76
2023/07/03 13:43:57;;;;;;;;;5.25;4.25;;;;;;;;5077629;27;45271;-76
2023/07/03 13:46:23;;;;;;;;;8.50;8.50;;;;;;;;5088879;27;45403;-77
2023/07/03 13:48:49;;;;;;;;;10.50;8.50;;;;;;;;5083259;27;45486;-77
2023/07/03 13:51:14;;;;;;;;;4.25;3.00;;;;;;;;5081638;27;45545;-77
2023/07/03 13:53:39;;;;;;;;;13.00;11.50;;;;;;;;5090610;27;45723;-76
2023/07/03 13:56:04;;;;;;;;;4.25;2.50;;;;;;;;5076902;27;45395;-76
2023/07/03 13:58:31;;;;;;;;;1.00;1.00;;;;;;;;5090764;27;45428;-77
2023/07/03 14:00:57;;;;;;;;;1.75;1.75;;;;;;;;5088420;27;45359;-75
2023/07/03 14:03:22;;;;;;;;;2.00;2.00;;;;;;;;5083613;27;45422;-76
2023/07/03 14:05:47;;;;;;;;;285.75;257.00;;;;;;;;5094187;27;45402;-77
2023/07/03 14:08:12;;;;;;;;;357.00;319.67;;;;;;;;5081829;27;45421;-77
2023/07/03 14:10:37;;;;;;;;;70.75;54.75;;;;;;;;5089375;27;45368;-76
2023/07/03 14:13:03;;;;;;;;;28.25;25.00;;;;;;;;5088751;27;46134;-76
2023/07/03 14:15:28;;;;;;;;;21.00;19.50;;;;;;;;5082604;27;45471;-73
2023/07/03 14:17:54;;;;;;;;;5.75;4.25;;;;;;;;5095215;27;45311;-76
2023/07/03 14:20:19;;;;;;;;;2.75;2.75;;;;;;;;5083312;27;45245;-74
2023/07/03 14:22:45;;;;;;;;;3.00;3.00;;;;;;;;5089796;27;46235;-74
2023/07/03 14:25:11;;;;;;;;;3.00;3.00;;;;;;;;5090646;27;45341;-74
2023/07/03 14:27:37;;;;;;;;;2.75;2.75;;;;;;;;5081755;27;45285;-75
2023/07/03 14:30:05;;;;;;;;;3.75;2.00;;;;;;;;5081879;27;45268;-74
2023/07/03 14:32:30;;;;;;;;;2.00;2.00;;;;;;;;5082957;27;46019;-73
2023/07/03 14:34:56;;;;;;;;;2.00;2.00;;;;;;;;5087033;27;45470;-74
2023/07/03 14:37:21;;;;;;;;;2.75;2.75;;;;;;;;5083576;27;45489;-74
2023/07/03 14:39:46;;;;;;;;;1.00;1.00;;;;;;;;5094182;27;45350;-75
2023/07/03 14:42:11;;;;;;;;;3.00;3.00;;;;;;;;5081104;27;47252;-75